Time;durP1;ratioP1;P1;durP2;ratioP2;P2;SDS_P1;SDS_P2;PMS_P1;PMS_P2;Temp;Humidity;BMP_temperature;BMP_pressure;BME280_temperature;BME280_humidity;BME280_pressure;Samples;Min_cycle;Max_cycle;Signal;HPM_P1;HPM_P2
2022/06/14 00:00:55;;;;;;;5.03;1.60;;;12.10;99.90;;;;;;5094450;28;20044;-79
2022/06/14 00:03:24;;;;;;;5.82;1.50;;;12.10;99.90;;;;;;5096815;28;20044;-79
2022/06/14 00:05:50;;;;;;;6.63;1.60;;;12.20;99.90;;;;;;5096668;28;20097;-79
2022/06/14 00:08:16;;;;;;;6.05;1.63;;;12.10;99.90;;;;;;5097036;28;20392;-79
2022/06/14 00:10:43;;;;;;;5.63;1.40;;;12.30;99.90;;;;;;5096533;28;20105;-79
2022/06/14 00:13:10;;;;;;;5.38;1.50;;;12.00;99.90;;;;;;5096357;28;20051;-78
2022/06/14 00:15:35;;;;;;;5.07;1.30;;;12.00;99.90;;;;;;5095485;28;20048;-78
2022/06/14 00:18:01;;;;;;;7.00;1.45;;;11.90;99.90;;;;;;5096450;28;20052;-78
2022/06/14 00:20:27;;;;;;;4.95;1.50;;;12.00;99.90;;;;;;5096081;28;20392;-79
2022/06/14 00:22:53;;;;;;;7.32;1.65;;;12.30;99.90;;;;;;5096046;28;20515;-79
2022/06/14 00:25:30;;;;;;;6.90;1.88;;;11.90;99.90;;;;;;5096314;28;20048;-79
2022/06/14 00:27:56;;;;;;;5.55;1.55;;;11.90;99.90;;;;;;5096485;28;20051;-78
2022/06/14 00:30:23;;;;;;;4.30;1.50;;;11.90;99.90;;;;;;5096523;28;20048;-79
2022/06/14 00:32:49;;;;;;;3.58;1.35;;;11.90;99.90;;;;;;5095717;28;20048;-79
2022/06/14 00:35:15;;;;;;;5.93;1.63;;;11.80;99.90;;;;;;5096633;28;20507;-79
2022/06/14 00:37:41;;;;;;;4.00;1.60;;;11.80;99.90;;;;;;5094949;28;20044;-78
2022/06/14 00:40:09;;;;;;;6.63;1.63;;;11.90;99.90;;;;;;5095468;28;20070;-78
2022/06/14 00:42:35;;;;;;;4.40;1.52;;;11.70;99.90;;;;;;5095377;28;20052;-78
2022/06/14 00:45:11;;;;;;;8.15;1.52;;;11.70;99.90;;;;;;5095894;28;20047;-79
2022/06/14 00:47:42;;;;;;;6.95;1.52;;;11.70;99.90;;;;;;5095076;28;20044;-79
2022/06/14 00:50:23;;;;;;;4.80;1.60;;;11.60;99.90;;;;;;5095828;28;20044;-79
2022/06/14 00:52:56;;;;;;;4.93;1.67;;;11.70;99.90;;;;;;5096146;28;20055;-79
2022/06/14 00:55:33;;;;;;;3.75;1.45;;;11.50;99.90;;;;;;5096413;28;20044;-79
2022/06/14 00:58:09;;;;;;;4.88;1.33;;;11.50;99.90;;;;;;5094741;28;20109;-78
2022/06/14 01:00:45;;;;;;;5.88;2.00;;;11.50;99.90;;;;;;5095669;28;20048;-79
2022/06/14 01:03:18;;;;;;;4.13;1.90;;;11.60;99.90;;;;;;5095676;28;20036;-79
2022/06/14 01:06:05;;;;;;;5.13;1.58;;;11.70;99.90;;;;;;5094127;28;20499;-79
2022/06/14 01:08:46;;;;;;;6.18;1.77;;;11.50;99.90;;;;;;5096256;28;20044;-79
2022/06/14 01:11:20;;;;;;;7.07;1.80;;;11.50;99.90;;;;;;5094605;28;20056;-79
2022/06/14 01:13:46;;;;;;;6.50;1.90;;;11.60;99.90;;;;;;5093750;28;20059;-79
2022/06/14 01:16:12;;;;;;;7.43;1.80;;;11.40;99.90;;;;;;5095391;28;20040;-79
2022/06/14 01:18:39;;;;;;;5.28;1.95;;;11.60;99.90;;;;;;5094355;28;20459;-79
2022/06/14 01:21:06;;;;;;;6.22;2.13;;;11.40;99.90;;;;;;5095250;28;20048;-79
2022/06/14 01:23:32;;;;;;;6.05;1.75;;;11.40;99.90;;;;;;5095192;28;20085;-79
2022/06/14 01:26:17;;;;;;;4.57;1.52;;;11.50;99.90;;;;;;5095158;28;20123;-79
2022/06/14 01:28:50;;;;;;;5.22;1.77;;;11.40;99.90;;;;;;5095235;28;20048;-79
2022/06/14 01:31:18;;;;;;;4.90;1.83;;;11.10;99.90;;;;;;5095106;28;20077;-79
2022/06/14 01:33:48;;;;;;;4.03;1.75;;;11.50;99.90;;;;;;5094848;28;20044;-79
2022/06/14 01:36:21;;;;;;;7.10;1.58;;;11.30;99.90;;;;;;5094988;28;20047;-79
2022/06/14 01:38:48;;;;;;;6.85;2.05;;;11.40;99.90;;;;;;5094079;28;20472;-78
2022/06/14 01:41:20;;;;;;;5.88;1.88;;;11.30;99.90;;;;;;5094189;28;20127;-78
2022/06/14 01:43:46;;;;;;;4.18;1.83;;;11.20;99.90;;;;;;5094643;28;20044;-79
2022/06/14 01:46:32;;;;;;;5.10;1.88;;;11.60;99.90;;;;;;5095206;28;20051;-79
2022/06/14 01:52:08;;;;;;;7.57;1.67;;;11.20;99.90;;;;;;5094784;28;20047;-78
2022/06/14 01:54:55;;;;;;;4.28;1.70;;;11.20;99.90;;;;;;5095105;28;20091;-78
2022/06/14 01:57:49;;;;;;;8.25;2.10;;;11.10;99.90;;;;;;5094921;28;20453;-78
2022/06/14 02:00:22;;;;;;;6.63;2.08;;;11.10;99.90;;;;;;5094750;28;20043;-79
2022/06/14 02:06:07;;;;;;;4.22;2.10;;;11.10;99.90;;;;;;5082860;28;20138;-79
2022/06/14 02:08:41;;;;;;;6.72;1.90;;;11.00;99.90;;;;;;5072547;28;20052;-78
2022/06/14 02:11:12;;;;;;;8.27;1.92;;;11.00;99.90;;;;;;5094108;28;20575;-78
2022/06/14 02:13:47;;;;;;;6.82;2.03;;;11.40;99.90;;;;;;5092829;28;20131;-78
2022/06/14 02:16:26;;;;;;;7.85;2.55;;;11.00;99.90;;;;;;5093468;28;20052;-79
2022/06/14 02:19:06;;;;;;;8.43;2.28;;;11.00;99.90;;;;;;5094049;28;20503;-79
2022/06/14 02:21:38;;;;;;;6.60;2.20;;;10.90;99.90;;;;;;5094286;28;20052;-79
2022/06/14 02:24:18;;;;;;;6.22;2.28;;;10.80;99.90;;;;;;5094280;28;20040;-79
2022/06/14 02:27:16;;;;;;;5.65;2.08;;;10.90;99.90;;;;;;5077036;28;20047;-79
2022/06/14 02:29:52;;;;;;;7.05;2.13;;;10.90;99.90;;;;;;5092025;28;20048;-79
2022/06/14 02:32:27;;;;;;;8.00;2.50;;;10.80;99.90;;;;;;5094105;28;20040;-79
2022/06/14 02:34:59;;;;;;;7.75;2.10;;;10.90;99.90;;;;;;5094158;28;20044;-80
2022/06/14 02:37:37;;;;;;;8.32;2.63;;;11.20;99.90;;;;;;5094123;28;20047;-79
2022/06/14 02:40:31;;;;;;;6.43;2.45;;;10.90;99.90;;;;;;5094048;28;20472;-79
2022/06/14 02:43:12;;;;;;;7.88;2.30;;;11.00;99.90;;;;;;5092608;28;20079;-79
2022/06/14 02:46:01;;;;;;;5.25;2.20;;;11.10;99.90;;;;;;5093934;28;20043;-79
2022/06/14 02:48:34;;;;;;;7.97;2.50;;;11.00;99.90;;;;;;5092648;28;20517;-79
2022/06/14 02:51:11;;;;;;;6.07;2.50;;;11.20;99.90;;;;;;5093993;28;20396;-79
2022/06/14 02:53:43;;;;;;;7.90;2.22;;;11.10;99.90;;;;;;5093401;28;20096;-79
2022/06/14 02:56:37;;;;;;;6.70;2.10;;;11.00;99.90;;;;;;5093275;28;20059;-79
2022/06/14 02:59:09;;;;;;;6.25;2.20;;;11.10;99.90;;;;;;5092896;28;20047;-79
2022/06/14 03:01:53;;;;;;;5.35;2.30;;;11.40;99.90;;;;;;5093920;28;20067;-80
2022/06/14 03:04:34;;;;;;;7.30;2.20;;;11.40;99.90;;;;;;5093795;28;20083;-79
2022/06/14 03:07:18;;;;;;;5.75;1.95;;;11.40;99.90;;;;;;5093745;28;20048;-79
2022/06/14 03:09:46;;;;;;;6.82;2.40;;;11.20;99.90;;;;;;5093704;28;20051;-79
2022/06/14 03:12:33;;;;;;;5.57;2.25;;;11.70;99.90;;;;;;5093926;28;20086;-79
2022/06/14 03:15:32;;;;;;;6.82;2.10;;;11.30;99.90;;;;;;5093608;28;20053;-79
2022/06/14 03:18:21;;;;;;;5.15;1.83;;;11.30;99.90;;;;;;5094170;28;20127;-79
2022/06/14 03:21:03;;;;;;;7.40;2.10;;;11.20;99.90;;;;;;5093706;28;20044;-79
2022/06/14 03:23:32;;;;;;;5.38;2.30;;;11.30;99.90;;;;;;5093639;28;20046;-78
2022/06/14 03:26:09;;;;;;;7.38;2.00;;;11.60;99.90;;;;;;5093570;28;20048;-79
2022/06/14 03:28:54;;;;;;;5.38;2.17;;;11.30;99.90;;;;;;5094136;28;20059;-79
2022/06/14 03:31:41;;;;;;;6.93;2.13;;;11.40;99.90;;;;;;5093557;28;20059;-79
2022/06/14 03:34:29;;;;;;;5.95;2.20;;;11.40;99.90;;;;;;5093438;28;20495;-78
2022/06/14 03:36:56;;;;;;;9.43;2.72;;;11.30;99.90;;;;;;5096155;28;20118;-78
2022/06/14 03:39:39;;;;;;;6.18;2.17;;;11.60;99.90;;;;;;5097377;28;20483;-78
2022/06/14 03:42:08;;;;;;;8.23;2.38;;;11.20;99.90;;;;;;5097898;28;20054;-78
2022/06/14 03:44:34;;;;;;;7.40;2.85;;;11.30;99.90;;;;;;5096509;28;20036;-78
2022/06/14 03:47:18;;;;;;;9.90;2.45;;;11.50;99.90;;;;;;5096817;28;20048;-79
2022/06/14 03:49:51;;;;;;;6.57;2.20;;;11.30;99.90;;;;;;5096994;28;20055;-79
2022/06/14 03:52:44;;;;;;;4.35;1.73;;;11.30;99.90;;;;;;5095816;28;20396;-78
2022/06/14 03:55:18;;;;;;;5.97;2.08;;;11.40;99.90;;;;;;5096942;28;20067;-79
2022/06/14 03:58:09;;;;;;;6.78;2.78;;;11.50;99.90;;;;;;5096922;28;20513;-79
2022/06/14 04:00:35;;;;;;;8.18;2.58;;;11.30;99.90;;;;;;5097065;28;20044;-79
2022/06/14 04:03:34;;;;;;;7.00;2.22;;;11.30;99.90;;;;;;5095717;28;20514;-80
2022/06/14 04:06:03;;;;;;;6.22;2.30;;;11.30;99.90;;;;;;5095998;28;20056;-80
2022/06/14 04:08:31;;;;;;;6.40;2.28;;;11.30;99.90;;;;;;5096615;28;20043;-79
2022/06/14 04:11:06;;;;;;;6.10;2.38;;;11.40;99.90;;;;;;5096964;28;20507;-79
2022/06/14 04:13:46;;;;;;;6.28;2.35;;;11.40;99.90;;;;;;5096018;28;20052;-79
2022/06/14 04:16:22;;;;;;;6.85;2.13;;;11.30;99.90;;;;;;5096701;28;20040;-79
2022/06/14 04:19:12;;;;;;;6.50;2.58;;;11.40;99.90;;;;;;5096439;28;20506;-79
2022/06/14 04:21:41;;;;;;;5.90;1.90;;;11.60;99.90;;;;;;5096419;28;20044;-79
2022/06/14 04:24:19;;;;;;;5.65;2.13;;;11.40;99.90;;;;;;5095148;28;20553;-79
2022/06/14 04:27:14;;;;;;;5.32;1.95;;;11.60;99.90;;;;;;5096369;28;20393;-80
2022/06/14 04:30:14;;;;;;;7.13;1.95;;;11.40;99.90;;;;;;5095599;28;20484;-80
2022/06/14 04:32:51;;;;;;;6.38;2.40;;;11.40;99.90;;;;;;5088270;28;20060;-80
2022/06/14 04:35:43;;;;;;;7.18;2.35;;;11.60;99.90;;;;;;5095293;28;20056;-79
2022/06/14 04:38:22;;;;;;;7.75;2.15;;;11.30;99.90;;;;;;5095741;28;20083;-79
2022/06/14 04:40:56;;;;;;;6.00;2.13;;;11.40;99.90;;;;;;5095147;28;20056;-79
2022/06/14 04:43:24;;;;;;;;;;;11.40;99.90;;;;;;5095895;28;20075;-79
2022/06/14 04:45:59;;;;;;;8.20;2.55;;;11.60;99.90;;;;;;5094439;28;19928;-79
2022/06/14 04:48:36;;;;;;;4.78;2.30;;;11.40;99.90;;;;;;5095751;28;20518;-79
2022/06/14 04:51:27;;;;;;;6.78;2.47;;;11.40;99.90;;;;;;5095962;28;20044;-79
2022/06/14 04:54:13;;;;;;;6.93;2.35;;;11.50;99.90;;;;;;5094888;28;20086;-79
2022/06/14 04:56:50;;;;;;;7.00;2.28;;;11.60;99.90;;;;;;5095713;28;20102;-79
2022/06/14 04:59:22;;;;;;;4.32;1.98;;;11.70;99.90;;;;;;5095968;28;20117;-79
2022/06/14 05:01:55;;;;;;;7.90;2.30;;;11.60;99.90;;;;;;5095527;28;20415;-79
2022/06/14 05:04:30;;;;;;;5.43;2.00;;;11.70;99.90;;;;;;5094615;28;20048;-79
2022/06/14 05:07:34;;;;;;;6.13;2.47;;;11.70;99.90;;;;;;5095568;28;20048;-79
2022/06/14 05:10:55;;;;;;;6.47;2.13;;;11.70;99.90;;;;;;5092746;28;20496;-80
2022/06/14 05:13:40;;;;;;;6.90;2.42;;;11.80;99.90;;;;;;5085143;28;20055;-79
2022/06/14 05:16:12;;;;;;;4.72;2.10;;;11.90;99.90;;;;;;5094869;28;20061;-79
2022/06/14 05:18:57;;;;;;;7.55;2.25;;;12.00;99.90;;;;;;5095344;28;20048;-79
2022/06/14 05:21:32;;;;;;;4.05;1.80;;;12.10;99.90;;;;;;5095431;28;20040;-78
2022/06/14 05:23:59;;;;;;;6.15;1.92;;;12.20;99.90;;;;;;5094804;28;20572;-80
2022/06/14 05:26:43;;;;;;;6.57;2.25;;;12.20;99.90;;;;;;5095734;28;20044;-80
2022/06/14 05:29:34;;;;;;;8.93;2.22;;;12.30;99.90;;;;;;5094788;28;20509;-79
2022/06/14 05:32:12;;;;;;;5.28;2.17;;;12.30;99.90;;;;;;5095309;28;20471;-79
2022/06/14 05:34:52;;;;;;;3.33;1.77;;;12.30;99.90;;;;;;5095326;28;20477;-79
2022/06/14 05:37:33;;;;;;;8.85;2.10;;;12.40;99.90;;;;;;5095097;28;20043;-79
2022/06/14 05:40:14;;;;;;;4.95;1.65;;;12.40;99.90;;;;;;5077133;28;20051;-79
2022/06/14 05:42:49;;;;;;;4.20;1.80;;;12.50;99.90;;;;;;5094483;28;20048;-79
2022/06/14 05:45:21;;;;;;;6.10;1.60;;;12.50;99.90;;;;;;5095132;28;20066;-79
2022/06/14 05:47:54;;;;;;;6.05;1.98;;;12.60;99.90;;;;;;5095092;28;20056;-79
2022/06/14 05:50:29;;;;;;;6.05;2.00;;;12.70;99.90;;;;;;5094877;28;20048;-79
2022/06/14 05:53:04;;;;;;;7.50;1.90;;;12.80;99.90;;;;;;5094482;28;20068;-79
2022/06/14 05:55:42;;;;;;;7.60;1.70;;;12.80;99.90;;;;;;5093734;28;20044;-80
2022/06/14 05:58:22;;;;;;;7.53;1.75;;;12.80;99.90;;;;;;5094090;28;20403;-79
2022/06/14 06:00:53;;;;;;;4.57;1.75;;;12.90;99.90;;;;;;5094622;28;20132;-79
2022/06/14 06:03:24;;;;;;;6.53;1.80;;;13.00;99.90;;;;;;5093894;28;20126;-79
2022/06/14 06:06:26;;;;;;;6.43;1.83;;;13.00;99.90;;;;;;5094569;28;20051;-79
2022/06/14 06:09:02;;;;;;;6.25;1.58;;;13.10;99.90;;;;;;5094484;28;20055;-79
2022/06/14 06:11:37;;;;;;;5.45;1.90;;;13.20;99.90;;;;;;5094605;28;20048;-80
2022/06/14 06:14:06;;;;;;;5.40;1.88;;;13.20;99.90;;;;;;5093811;28;20040;-80
2022/06/14 06:17:02;;;;;;;6.72;1.83;;;13.30;99.90;;;;;;5094809;28;20048;-77
2022/06/14 06:19:58;;;;;;;4.80;2.20;;;13.50;99.90;;;;;;5093405;28;20510;-82
2022/06/14 06:22:38;;;;;;;3.83;1.20;;;13.60;99.90;;;;;;5076452;28;20040;-82
2022/06/14 06:25:29;;;;;;;5.53;1.10;;;13.60;99.90;;;;;;5093358;28;20071;-83
2022/06/14 06:28:00;;;;;;;4.57;1.00;;;13.60;99.90;;;;;;5094309;28;20048;-81
2022/06/14 06:30:49;;;;;;;4.28;1.35;;;13.70;99.90;;;;;;5093186;28;20040;-81
2022/06/14 06:33:17;;;;;;;5.85;1.13;;;13.60;99.90;;;;;;5092888;28;20052;-81
2022/06/14 06:35:53;;;;;;;3.75;1.23;;;13.70;99.90;;;;;;5094218;28;20094;-81
2022/06/14 06:38:41;;;;;;;4.40;1.17;;;13.80;99.90;;;;;;5093334;28;20044;-81
2022/06/14 06:44:06;;;;;;;9.25;1.40;;;13.70;99.90;;;;;;5092522;28;20484;-83
2022/06/14 06:46:40;;;;;;;6.18;1.40;;;13.80;99.90;;;;;;5092819;28;20121;-82
2022/06/14 06:49:09;;;;;;;4.97;1.50;;;13.80;99.90;;;;;;5093281;28;20091;-81
2022/06/14 06:51:54;;;;;;;4.63;1.17;;;13.80;99.90;;;;;;5092811;28;20039;-82
2022/06/14 06:54:25;;;;;;;6.35;1.75;;;13.90;99.90;;;;;;5094115;28;20539;-82
2022/06/14 06:56:57;;;;;;;6.60;1.98;;;13.90;99.90;;;;;;5093781;28;20066;-83
2022/06/14 06:59:37;;;;;;;5.97;1.70;;;14.00;99.90;;;;;;5093291;28;20102;-82
2022/06/14 07:02:20;;;;;;;4.03;1.05;;;14.00;99.90;;;;;;5092741;28;20093;-81
2022/06/14 07:05:03;;;;;;;2.53;0.90;;;14.10;99.90;;;;;;5092879;28;20052;-82
2022/06/14 07:07:52;;;;;;;2.42;0.68;;;14.10;99.90;;;;;;5093582;28;20047;-83
2022/06/14 07:10:27;;;;;;;4.35;0.80;;;14.20;99.90;;;;;;5096340;28;20055;-82
2022/06/14 07:12:56;;;;;;;3.40;0.70;;;14.20;99.90;;;;;;5096788;28;20048;-82
2022/06/14 07:15:26;;;;;;;4.32;0.80;;;14.30;99.90;;;;;;5097664;28;20052;-82
2022/06/14 07:18:05;;;;;;;7.20;0.98;;;14.30;99.90;;;;;;5097644;28;20131;-83
2022/06/14 07:20:44;;;;;;;2.50;0.98;;;14.40;99.90;;;;;;5096795;28;20056;-81
2022/06/14 07:23:38;;;;;;;7.25;1.20;;;14.50;99.90;;;;;;5096887;28;20052;-81
2022/06/14 07:26:10;;;;;;;3.38;0.65;;;14.60;99.90;;;;;;5096592;28;20048;-79
2022/06/14 07:29:14;;;;;;;3.40;0.70;;;14.60;99.90;;;;;;5097575;28;20048;-82
2022/06/14 07:31:46;;;;;;;4.40;0.95;;;14.70;99.90;;;;;;5075773;28;20058;-80
2022/06/14 07:34:14;;;;;;;4.28;0.80;;;14.70;99.90;;;;;;5096391;28;20197;-79
2022/06/14 07:36:46;;;;;;;6.57;1.10;;;14.70;99.90;;;;;;5097529;28;20400;-78
2022/06/14 07:39:23;;;;;;;2.88;0.65;;;14.80;99.90;;;;;;5096165;28;20131;-80
2022/06/14 07:42:10;;;;;;;4.50;0.80;;;14.80;99.90;;;;;;5097957;28;20467;-80
2022/06/14 07:45:03;;;;;;;5.65;0.73;;;14.80;99.90;;;;;;5095685;28;20563;-81
2022/06/14 07:47:35;;;;;;;3.72;1.00;;;14.90;99.90;;;;;;5096396;28;20065;-81
2022/06/14 07:50:14;;;;;;;3.13;0.70;;;15.00;99.90;;;;;;5096466;28;20056;-81
2022/06/14 07:52:54;;;;;;;5.20;0.85;;;15.00;99.90;;;;;;5096442;28;20109;-79
2022/06/14 07:55:34;;;;;;;7.22;1.42;;;15.00;99.90;;;;;;5096407;28;20113;-80
2022/06/14 07:58:06;;;;;;;4.25;1.25;;;15.10;99.90;;;;;;5097091;28;20048;-79
2022/06/14 08:03:48;;;;;;;2.65;0.70;;;15.20;99.90;;;;;;5096632;28;20392;-79
2022/06/14 08:06:48;;;;;;;2.80;0.80;;;15.20;99.90;;;;;;5129233;27;20052;-81
2022/06/14 08:09:42;;;;;;;4.32;1.05;;;15.20;99.90;;;;;;5061481;28;20048;-82
2022/06/14 08:12:29;;;;;;;3.42;0.90;;;15.20;99.90;;;;;;5095066;28;20113;-82
2022/06/14 08:15:17;;;;;;;4.10;0.90;;;15.30;99.90;;;;;;5094343;28;20102;-81
2022/06/14 08:18:00;;;;;;;2.50;0.60;;;15.30;99.90;;;;;;5094557;28;20071;-81
2022/06/14 08:20:44;;;;;;;3.53;0.63;;;15.40;99.90;;;;;;5094409;28;20044;-78
2022/06/14 08:23:18;;;;;;;2.10;0.60;;;15.50;99.90;;;;;;5095189;28;20119;-81
2022/06/14 08:25:48;;;;;;;4.28;0.80;;;15.50;99.90;;;;;;5094439;28;20127;-82
2022/06/14 08:28:32;;;;;;;1.65;0.52;;;15.60;99.90;;;;;;5078199;28;20079;-82
2022/06/14 08:31:18;;;;;;;1.90;0.60;;;15.70;99.90;;;;;;5092304;28;20138;-79
2022/06/14 08:33:50;;;;;;;2.50;0.65;;;15.70;99.90;;;;;;5094218;28;20036;-78
2022/06/14 08:36:31;;;;;;;3.35;0.70;;;15.70;99.90;;;;;;5090351;28;20043;-83
2022/06/14 08:39:07;;;;;;;2.28;0.80;;;15.80;99.90;;;;;;5090606;28;20042;-79
2022/06/14 08:42:00;;;;;;;3.25;0.50;;;15.90;99.90;;;;;;5086719;28;20051;-81
2022/06/14 08:44:49;;;;;;;2.47;0.60;;;16.00;99.90;;;;;;5091217;28;20132;-82
2022/06/14 08:47:53;;;;;;;3.70;0.63;;;16.10;99.90;;;;;;5080459;28;20563;-81
2022/06/14 08:50:42;;;;;;;2.20;0.60;;;16.10;99.90;;;;;;5085841;28;20210;-79
2022/06/14 08:53:08;;;;;;;2.25;0.70;;;16.00;99.90;;;;;;5089540;28;20475;-80
2022/06/14 08:55:52;;;;;;;3.40;0.50;;;15.90;99.90;;;;;;5087702;28;20130;-80
2022/06/14 08:58:33;;;;;;;2.60;0.63;;;15.90;99.90;;;;;;5086640;28;20044;-81
2022/06/14 09:01:19;;;;;;;3.08;1.05;;;15.80;99.90;;;;;;5090510;28;20396;-80
2022/06/14 09:04:06;;;;;;;2.97;0.55;;;15.90;99.90;;;;;;5089530;28;20044;-77
2022/06/14 09:06:47;;;;;;;1.80;0.73;;;16.00;99.90;;;;;;5089965;28;20048;-78
2022/06/14 09:09:50;;;;;;;2.60;0.60;;;16.00;99.90;;;;;;5089844;28;20130;-78
2022/06/14 09:12:41;;;;;;;1.27;0.50;;;16.10;99.90;;;;;;5087630;28;20036;-78
2022/06/14 09:15:19;;;;;;;2.28;0.60;;;16.10;99.90;;;;;;5070472;28;20048;-80
2022/06/14 09:18:10;;;;;;;2.08;0.47;;;16.10;99.90;;;;;;5089069;28;20386;-77
2022/06/14 09:20:38;;;;;;;2.47;0.50;;;16.20;99.90;;;;;;5085428;28;20502;-81
2022/06/14 09:23:25;;;;;;;3.97;0.90;;;16.20;99.90;;;;;;5086176;28;20071;-86
2022/06/14 09:26:09;;;;;;;1.65;0.40;;;16.30;99.90;;;;;;5088701;28;20040;-81
2022/06/14 09:29:08;;;;;;;2.38;0.60;;;16.40;99.90;;;;;;5090741;28;20052;-78
2022/06/14 09:31:51;;;;;;;2.53;0.60;;;16.60;99.90;;;;;;5088489;28;20123;-80
2022/06/14 09:34:55;;;;;;;2.88;0.50;;;16.70;99.90;;;;;;5083611;28;20130;-79
2022/06/14 09:38:01;;;;;;;1.52;0.50;;;16.90;99.90;;;;;;5083169;28;20062;-77
2022/06/14 09:40:55;;;;;;;4.50;0.60;;;17.00;99.90;;;;;;5024948;28;20041;-76
2022/06/14 09:43:40;;;;;;;1.67;0.47;;;17.00;99.90;;;;;;5078770;28;20044;-76
2022/06/14 09:46:08;;;;;;;1.45;0.52;;;17.00;99.90;;;;;;5084123;28;20054;-78
2022/06/14 09:48:57;;;;;;;2.50;0.63;;;16.90;99.90;;;;;;5085564;28;20044;-76
2022/06/14 09:51:40;;;;;;;2.03;0.47;;;16.90;99.90;;;;;;5056173;28;20056;-78
2022/06/14 09:54:25;;;;;;;1.15;0.40;;;16.90;99.90;;;;;;5082801;28;20048;-77
2022/06/14 09:57:23;;;;;;;1.52;0.50;;;16.90;99.90;;;;;;5086565;28;20063;-77
2022/06/14 10:00:14;;;;;;;2.83;1.20;;;16.90;99.90;;;;;;5082274;28;20047;-77
2022/06/14 10:03:08;;;;;;;2.88;0.60;;;17.00;99.90;;;;;;5083553;28;20040;-76
2022/06/14 10:06:07;;;;;;;2.13;0.47;;;17.10;99.90;;;;;;5086350;28;20123;-77
2022/06/14 10:09:13;;;;;;;1.33;0.50;;;17.30;99.90;;;;;;5084931;28;20093;-78
2022/06/14 10:12:08;;;;;;;2.85;0.73;;;17.40;99.90;;;;;;5082920;28;20040;-77
2022/06/14 10:14:58;;;;;;;1.95;0.50;;;17.50;99.90;;;;;;5029086;28;20136;-78
2022/06/14 10:17:36;;;;;;;2.58;0.60;;;17.60;99.90;;;;;;5084335;28;20052;-77
2022/06/14 10:20:17;;;;;;;1.75;0.52;;;17.60;99.90;;;;;;5081177;28;20935;-78
2022/06/14 10:23:07;;;;;;;1.40;0.50;;;17.80;99.90;;;;;;5085414;28;20372;-77
2022/06/14 10:28:11;;;;;;;0.93;0.50;;;17.80;99.90;;;;;;5084379;28;20048;-78
2022/06/14 10:28:52;;;;;;;2.88;0.60;;;17.90;99.90;;;;;;5080777;28;20055;-78
2022/06/14 10:32:00;;;;;;;1.10;0.40;;;17.90;99.90;;;;;;5083420;28;20730;-77
2022/06/14 10:34:37;;;;;;;3.03;0.63;;;18.00;99.90;;;;;;5086363;28;20046;-77
2022/06/14 10:37:21;;;;;;;2.88;0.50;;;18.00;99.90;;;;;;5086967;28;20571;-78
2022/06/14 10:39:58;;;;;;;1.45;0.40;;;18.00;99.90;;;;;;5080908;28;20040;-76
2022/06/14 10:42:33;;;;;;;1.90;0.50;;;18.00;99.90;;;;;;5082265;28;20043;-77
2022/06/14 10:45:18;;;;;;;2.33;0.40;;;17.90;99.90;;;;;;5086755;28;20044;-77
2022/06/14 10:48:07;;;;;;;1.50;0.50;;;17.70;99.90;;;;;;5084417;28;20059;-77
2022/06/14 10:50:57;;;;;;;1.67;0.47;;;17.60;99.90;;;;;;5085773;28;20056;-76
2022/06/14 10:53:55;;;;;;;2.53;0.45;;;17.50;99.90;;;;;;5085143;28;20098;-75
2022/06/14 10:56:45;;;;;;;1.63;0.50;;;17.50;99.90;;;;;;5086276;28;20102;-77
2022/06/14 10:59:14;;;;;;;1.90;0.50;;;17.40;99.90;;;;;;5088098;28;20051;-76
2022/06/14 11:01:50;;;;;;;2.47;0.50;;;17.40;99.90;;;;;;5086595;28;20126;-79
2022/06/14 11:04:15;;;;;;;2.47;0.60;;;17.40;99.90;;;;;;5087857;28;20036;-77
2022/06/14 11:07:02;;;;;;;2.47;0.65;;;17.40;99.90;;;;;;5083403;28;20047;-76
2022/06/14 11:09:59;;;;;;;2.50;0.60;;;17.50;99.90;;;;;;5086488;28;20107;-76
2022/06/14 11:12:36;;;;;;;2.03;0.50;;;17.50;99.90;;;;;;5078402;28;20070;-76
2022/06/14 11:15:08;;;;;;;1.42;0.60;;;17.60;99.90;;;;;;5085796;28;20044;-77
2022/06/14 11:17:49;;;;;;;2.63;0.52;;;17.70;99.90;;;;;;5084099;28;20802;-78
2022/06/14 11:20:17;;;;;;;2.13;0.45;;;17.70;99.90;;;;;;5085114;28;20052;-78
2022/06/14 11:22:56;;;;;;;3.70;0.60;;;17.80;99.90;;;;;;5089324;28;20032;-78
2022/06/14 11:25:45;;;;;;;2.42;0.40;;;17.80;99.90;;;;;;5084443;28;20040;-78
2022/06/14 11:28:25;;;;;;;1.65;0.50;;;17.90;99.90;;;;;;5083912;28;20066;-77
2022/06/14 11:30:50;;;;;;;1.92;0.50;;;17.90;99.90;;;;;;5089474;28;20036;-76
2022/06/14 11:33:29;;;;;;;1.08;0.50;;;18.00;99.90;;;;;;5089566;28;20111;-78
2022/06/14 11:36:38;;;;;;;2.53;0.50;;;18.00;99.90;;;;;;5092703;28;20121;-76
2022/06/14 11:39:35;;;;;;;2.05;0.60;;;18.00;99.90;;;;;;5068288;28;20063;-78
2022/06/14 11:42:24;;;;;;;1.38;0.40;;;18.10;99.90;;;;;;5079780;28;20040;-77
2022/06/14 11:45:09;;;;;;;1.40;0.50;;;18.10;99.90;;;;;;5085714;28;20052;-77
2022/06/14 11:47:50;;;;;;;2.55;0.63;;;18.10;99.90;;;;;;5091076;28;20044;-77
2022/06/14 11:50:46;;;;;;;3.28;0.45;;;18.20;99.90;;;;;;5092240;28;20059;-78
2022/06/14 11:53:44;;;;;;;1.95;0.50;;;18.20;99.90;;;;;;5067306;28;20040;-78
2022/06/14 11:56:24;;;;;;;2.35;0.57;;;18.20;99.90;;;;;;5125351;27;20395;-78
2022/06/14 11:59:19;;;;;;;2.63;0.60;;;18.30;99.90;;;;;;5078645;28;20119;-79
2022/06/14 12:02:09;;;;;;;3.65;0.57;;;18.30;99.90;;;;;;5094692;28;20036;-78
2022/06/14 12:04:49;;;;;;;1.42;0.60;;;18.40;99.90;;;;;;5095984;28;20063;-78
2022/06/14 12:07:44;;;;;;;2.03;0.50;;;18.40;99.90;;;;;;5096310;28;20078;-78
2022/06/14 12:10:21;;;;;;;3.08;0.52;;;18.40;99.90;;;;;;5094856;28;20077;-78
2022/06/14 12:13:17;;;;;;;2.15;0.82;;;18.40;99.90;;;;;;5095051;28;20524;-77
2022/06/14 12:15:46;;;;;;;3.25;1.35;;;18.40;99.90;;;;;;5094385;28;20048;-77
2022/06/14 12:18:15;;;;;;;2.40;0.60;;;18.40;99.90;;;;;;5096350;28;20047;-77
2022/06/14 12:20:58;;;;;;;2.53;0.65;;;18.30;99.90;;;;;;5092673;28;20039;-77
2022/06/14 12:23:42;;;;;;;3.10;0.70;;;18.30;99.90;;;;;;5076567;28;20165;-76
2022/06/14 12:26:36;;;;;;;1.77;0.70;;;18.30;99.90;;;;;;5094768;28;20051;-77
2022/06/14 12:29:08;;;;;;;2.25;0.50;;;18.30;99.90;;;;;;5094013;28;20128;-77
2022/06/14 12:32:12;;;;;;;6.72;0.93;;;18.30;99.90;;;;;;5094911;28;20036;-77
2022/06/14 12:34:50;;;;;;;3.70;0.70;;;18.30;99.90;;;;;;5092055;28;20474;-77
2022/06/14 12:37:38;;;;;;;3.13;0.70;;;18.40;99.90;;;;;;5078141;28;20047;-77
2022/06/14 12:40:20;;;;;;;3.70;0.80;;;18.50;99.90;;;;;;5092978;28;20040;-78
2022/06/14 12:42:58;;;;;;;2.92;0.80;;;18.50;99.90;;;;;;5093153;28;20040;-77
2022/06/14 12:45:34;;;;;;;1.65;0.65;;;18.60;99.90;;;;;;5093349;28;20079;-77
2022/06/14 12:48:10;;;;;;;1.60;0.70;;;18.60;99.90;;;;;;5093400;28;20044;-76
2022/06/14 12:50:42;;;;;;;2.22;0.70;;;18.70;99.90;;;;;;5095978;28;20075;-76
2022/06/14 12:53:55;;;;;;;3.30;0.70;;;18.70;99.90;;;;;;5096737;28;20048;-76
2022/06/14 12:56:39;;;;;;;2.53;0.90;;;18.70;99.90;;;;;;5045056;28;20431;-77
2022/06/14 12:59:32;;;;;;;2.67;0.70;;;18.70;99.90;;;;;;5019137;28;20521;-77
2022/06/14 13:02:09;;;;;;;1.55;0.70;;;18.80;99.90;;;;;;5112447;27;20074;-75
2022/06/14 13:04:41;;;;;;;4.38;0.80;;;18.80;99.90;;;;;;5094253;28;20040;-76
2022/06/14 13:07:15;;;;;;;1.77;0.60;;;18.80;99.90;;;;;;5095127;28;20101;-77
2022/06/14 13:10:26;;;;;;;3.92;0.90;;;18.90;99.90;;;;;;5092871;28;20085;-76
2022/06/14 13:13:03;;;;;;;3.38;0.70;;;18.80;99.90;;;;;;5075187;28;20048;-76
2022/06/14 13:15:38;;;;;;;2.53;0.57;;;18.90;99.90;;;;;;5093953;28;20040;-77
2022/06/14 13:18:16;;;;;;;2.40;0.70;;;18.90;99.90;;;;;;5092290;28;20357;-76
2022/06/14 13:21:11;;;;;;;3.22;0.90;;;18.90;99.90;;;;;;5091520;28;20123;-75
2022/06/14 13:23:53;;;;;;;3.70;0.80;;;19.00;99.90;;;;;;5093884;28;20043;-76
2022/06/14 13:26:33;;;;;;;2.60;0.75;;;19.00;99.90;;;;;;5092371;28;20036;-76
2022/06/14 13:29:02;;;;;;;2.28;0.90;;;19.00;99.90;;;;;;5091442;28;20051;-77
2022/06/14 13:31:55;;;;;;;2.53;0.77;;;19.00;99.90;;;;;;5094895;28;20032;-77
2022/06/14 13:34:54;;;;;;;2.45;1.10;;;19.10;99.90;;;;;;5092516;28;20032;-76
2022/06/14 13:38:11;;;;;;;3.67;0.90;;;19.10;99.90;;;;;;5092490;28;20056;-77
2022/06/14 13:40:52;;;;;;;2.88;0.80;;;19.20;99.90;;;;;;5046308;28;20048;-77
2022/06/14 13:43:51;;;;;;;2.50;0.75;;;19.20;99.90;;;;;;5093344;28;20119;-76
2022/06/14 13:46:38;;;;;;;1.85;0.65;;;19.20;99.90;;;;;;5093419;28;20036;-76
2022/06/14 13:49:26;;;;;;;2.08;0.50;;;19.20;99.90;;;;;;5092675;28;20044;-76
2022/06/14 13:52:00;;;;;;;2.85;0.60;;;19.20;99.90;;;;;;5093746;28;20039;-77
2022/06/14 13:54:32;;;;;;;2.00;0.65;;;19.00;99.90;;;;;;5092183;28;20396;-77
2022/06/14 13:56:57;;;;;;;0.82;0.45;;;19.00;99.90;;;;;;5093243;28;20124;-78
2022/06/14 13:59:28;;;;;;;1.73;0.60;;;18.90;99.90;;;;;;5094430;28;20070;-76
2022/06/14 14:02:04;;;;;;;1.30;0.50;;;18.90;99.90;;;;;;5094416;28;20107;-76
2022/06/14 14:04:36;;;;;;;2.80;0.60;;;18.90;99.90;;;;;;5092042;28;20384;-77
2022/06/14 14:07:23;;;;;;;2.77;0.70;;;18.80;99.90;;;;;;5072675;28;20051;-77
2022/06/14 14:10:17;;;;;;;2.83;0.65;;;18.80;99.90;;;;;;5091671;28;20701;-77